Ridgewood, New York
Current Conditions -  °F | °C
As of 4:51 PM on Friday 24 Oct 2014 (Local Time) from KLGA Reporting Station
Overcast Overcast  
Wind Chill: 60°   Ceiling: 4900
Heat Index: 60°   Visibility: 10mi
Dew Point: 46°   Wind: 9mph
Humidity: 60%   Direction: 60°ENE
Pressure: 29.77"   Gusts: NA
Location:  40.7°N, 73.9°W
Report Text: KLGA 242051Z 06008KT 10SM OVC049 16/08 A2977 RMK AO2 SLP079 T01560078 55001
Loading
Personal Weather Stations






























Interactive Weather Map
Tropical Storm Tracking
New forecast layout! Learn more

10-Day Weather Forecast

Advertisements
Track Severe Weather on mobile